createdAt,value
2022-09-06T00:00:27.533Z,5.28
2022-09-06T00:05:32.150Z,5.03
2022-09-06T00:10:35.033Z,4.78
2022-09-06T00:20:42.094Z,4.68
2022-09-06T00:25:44.533Z,5.43
2022-09-06T00:30:47.600Z,4.93
2022-09-06T00:35:51.443Z,5.40
2022-09-06T00:40:53.881Z,4.45
2022-09-06T00:45:56.680Z,5.32
2022-09-06T00:51:01.847Z,6.13
2022-09-06T00:56:04.340Z,6.45
2022-09-06T01:01:08.088Z,8.27
2022-09-06T01:06:17.759Z,8.32
2022-09-06T01:11:28.791Z,8.23
2022-09-06T01:16:35.105Z,9.23
2022-09-06T01:21:42.978Z,8.93
2022-09-06T01:27:00.328Z,8.90
2022-09-06T01:32:06.009Z,9.57
2022-09-06T01:37:11.045Z,9.13
2022-09-06T01:42:16.178Z,8.20
2022-09-06T01:47:24.379Z,9.05
2022-09-06T01:52:30.243Z,8.70
2022-09-06T01:57:42.356Z,8.90
2022-09-06T02:02:52.243Z,8.38
2022-09-06T02:07:58.932Z,7.35
2022-09-06T02:13:02.125Z,8.15
2022-09-06T02:18:07.189Z,9.35
2022-09-06T02:23:09.806Z,8.60
2022-09-06T02:28:13.303Z,9.27
2022-09-06T02:33:18.281Z,8.88
2022-09-06T02:38:22.345Z,10.23
2022-09-06T02:43:24.856Z,9.23
2022-09-06T02:48:28.681Z,10.35
2022-09-06T02:53:31.508Z,10.52
2022-09-06T02:58:33.993Z,10.85
2022-09-06T03:03:37.822Z,9.73
2022-09-06T03:08:40.259Z,9.45
2022-09-06T03:13:42.713Z,9.43
2022-09-06T03:18:46.938Z,9.45
2022-09-06T03:23:49.637Z,10.27
2022-09-06T03:28:52.095Z,9.77
2022-09-06T03:33:55.837Z,9.90
2022-09-06T03:38:58.991Z,9.82
2022-09-06T03:44:01.468Z,9.35
2022-09-06T03:49:05.312Z,9.82
2022-09-06T03:54:07.675Z,9.70
2022-09-06T03:59:10.046Z,10.15
2022-09-06T04:04:13.808Z,9.40
2022-09-06T04:09:16.314Z,9.75
2022-09-06T04:14:18.766Z,8.55
2022-09-06T04:19:23.749Z,9.15
2022-09-06T04:24:26.246Z,8.52
2022-09-06T04:29:28.770Z,9.32
2022-09-06T04:34:33.234Z,9.55
2022-09-06T04:39:35.746Z,9.80
2022-09-06T04:44:38.219Z,12.07
2022-09-06T04:49:42.215Z,12.30
2022-09-06T04:54:44.596Z,12.60
2022-09-06T04:59:47.065Z,13.02
2022-09-06T05:04:52.205Z,12.90
2022-09-06T05:09:54.976Z,13.80
2022-09-06T05:14:57.349Z,12.73
2022-09-06T05:20:01.055Z,13.47
2022-09-06T05:25:03.489Z,13.25
2022-09-06T05:30:06.217Z,13.93
2022-09-06T05:35:10.223Z,14.30
2022-09-06T05:40:12.852Z,14.30
2022-09-06T05:45:15.627Z,15.07
2022-09-06T05:50:19.372Z,14.05
2022-09-06T05:55:22.810Z,15.88
2022-09-06T06:00:25.324Z,16.00
2022-09-06T06:05:29.098Z,14.38
2022-09-06T06:10:34.328Z,16.30
2022-09-06T06:15:39.145Z,15.13
2022-09-06T06:20:42.887Z,14.38
2022-09-06T06:25:45.366Z,13.32
2022-09-06T06:30:47.854Z,12.75
2022-09-06T06:35:58.776Z,12.02
2022-09-06T06:41:06.407Z,9.48
2022-09-06T06:46:10.476Z,9.98
2022-09-06T06:51:15.045Z,11.45
2022-09-06T06:56:18.450Z,10.50
2022-09-06T07:01:21.949Z,11.02
2022-09-06T07:11:50.310Z,10.35
2022-09-06T07:16:58.161Z,9.23
2022-09-06T07:22:04.598Z,9.07
2022-09-06T07:32:31.052Z,8.80
2022-09-06T07:37:34.825Z,8.20
2022-09-06T07:42:37.329Z,7.10
2022-09-06T07:58:13.495Z,7.25
2022-09-06T08:03:15.971Z,7.88
2022-09-06T08:13:42.670Z,7.43
2022-09-06T08:18:45.161Z,8.68
2022-09-06T08:23:49.800Z,8.07
2022-09-06T08:28:54.317Z,8.98
2022-09-06T08:33:57.133Z,7.78
2022-09-06T08:39:01.575Z,9.48
2022-09-06T08:49:30.073Z,7.63
2022-09-06T08:54:37.902Z,8.18
2022-09-06T08:59:42.911Z,8.43
2022-09-06T09:04:47.274Z,7.70
2022-09-06T09:09:51.458Z,7.50
2022-09-06T09:14:56.070Z,7.60
2022-09-06T09:19:58.583Z,6.50
2022-09-06T09:25:03.199Z,6.43
2022-09-06T09:35:33.904Z,7.60
2022-09-06T09:40:41.547Z,3.75
2022-09-06T09:45:44.426Z,3.30
2022-09-06T09:50:47.275Z,4.22
2022-09-06T09:55:55.687Z,3.85
2022-09-06T10:01:11.843Z,5.10
2022-09-06T10:11:41.285Z,4.82
2022-09-06T10:16:44.926Z,5.25
2022-09-06T10:21:47.327Z,5.90
2022-09-06T10:26:52.228Z,4.50
2022-09-06T10:32:01.553Z,4.93
2022-09-06T10:37:09.537Z,4.13
2022-09-06T10:42:20.614Z,4.97
2022-09-06T10:47:24.768Z,4.43
2022-09-06T10:52:31.400Z,3.47
2022-09-06T11:08:58.566Z,2.35
2022-09-06T11:13:52.376Z,2.92
2022-09-06T11:18:56.132Z,3.33
2022-09-06T11:24:06.593Z,3.28
2022-09-06T11:29:11.559Z,3.58
2022-09-06T11:34:20.471Z,3.03
2022-09-06T11:45:11.538Z,2.20
2022-09-06T11:50:48.410Z,2.20
2022-09-06T11:56:10.508Z,2.40
2022-09-06T12:06:17.072Z,2.50
2022-09-06T12:11:30.208Z,3.20
2022-09-06T12:16:51.398Z,2.28
2022-09-06T12:21:53.759Z,2.88
2022-09-06T12:27:09.187Z,2.75
2022-09-06T12:32:12.135Z,2.00
2022-09-06T12:37:14.549Z,2.25
2022-09-06T12:42:19.415Z,1.88
2022-09-06T12:47:24.253Z,1.90
2022-09-06T12:52:26.758Z,1.90
2022-09-06T12:57:30.633Z,2.03
2022-09-06T13:02:34.955Z,1.83
2022-09-06T13:07:40.000Z,2.00
2022-09-06T13:12:45.645Z,2.20
2022-09-06T13:17:48.235Z,1.75
2022-09-06T13:22:51.682Z,1.63
2022-09-06T13:27:58.458Z,1.60
2022-09-06T13:33:01.477Z,1.60
2022-09-06T13:38:24.106Z,2.08
2022-09-06T13:43:28.387Z,2.30
2022-09-06T13:48:31.959Z,1.95
2022-09-06T13:53:34.422Z,1.90
2022-09-06T13:58:38.534Z,1.77
2022-09-06T14:03:42.141Z,1.40
2022-09-06T14:09:05.971Z,1.92
2022-09-06T14:14:09.639Z,1.95
2022-09-06T14:19:12.010Z,1.70
2022-09-06T14:24:14.456Z,1.80
2022-09-06T14:29:18.178Z,1.67
2022-09-06T14:34:21.516Z,1.70
2022-09-06T14:39:24.028Z,1.63
2022-09-06T14:44:27.800Z,1.70
2022-09-06T14:49:30.169Z,1.27
2022-09-06T14:54:32.625Z,2.28
2022-09-06T14:59:36.612Z,1.60
2022-09-06T15:04:39.021Z,1.67
2022-09-06T15:09:41.410Z,1.80
2022-09-06T15:14:45.169Z,1.80
2022-09-06T15:19:47.645Z,1.73
2022-09-06T15:24:51.413Z,1.60
2022-09-06T15:29:55.212Z,1.58
2022-09-06T15:35:01.303Z,1.63
2022-09-06T15:40:06.876Z,1.40
2022-09-06T15:45:11.904Z,1.55
2022-09-06T15:50:25.299Z,1.42
2022-09-06T15:55:50.963Z,1.42
2022-09-06T16:01:04.945Z,1.55
2022-09-06T16:11:26.647Z,1.80
2022-09-06T16:16:30.663Z,1.50
2022-09-06T16:21:34.267Z,1.40
2022-09-06T16:26:37.558Z,1.50
2022-09-06T16:31:41.463Z,1.50
2022-09-06T16:36:44.242Z,1.67
2022-09-06T16:41:47.175Z,1.60
2022-09-06T16:46:52.903Z,1.42
2022-09-06T16:51:55.326Z,1.55
2022-09-06T16:56:57.841Z,1.40
2022-09-06T17:02:01.758Z,1.33
2022-09-06T17:07:04.221Z,1.60
2022-09-06T17:12:06.911Z,1.23
2022-09-06T17:17:10.672Z,1.40
2022-09-06T17:22:13.596Z,1.75
2022-09-06T17:27:16.042Z,1.70
2022-09-06T17:32:19.796Z,1.73
2022-09-06T17:37:23.099Z,1.90
2022-09-06T17:42:25.656Z,2.30
2022-09-06T17:47:30.862Z,2.38
2022-09-06T17:52:34.122Z,2.08
2022-09-06T17:57:36.541Z,1.90
2022-09-06T18:02:40.597Z,1.77
2022-09-06T18:07:44.019Z,2.33
2022-09-06T18:12:46.397Z,1.85
2022-09-06T18:22:52.871Z,2.22
2022-09-06T18:27:55.367Z,1.98
2022-09-06T18:38:01.602Z,1.80
2022-09-06T18:43:04.086Z,2.08
2022-09-06T18:53:10.270Z,2.92
2022-09-06T18:58:12.802Z,2.40
2022-09-06T19:08:19.067Z,2.20
2022-09-06T19:13:21.515Z,2.75
2022-09-06T19:18:23.964Z,3.20
2022-09-06T19:28:30.041Z,3.85
2022-09-06T19:33:36.160Z,4.30
2022-09-06T19:39:01.443Z,5.28
2022-09-06T19:44:05.385Z,5.37
2022-09-06T19:49:08.762Z,5.63
2022-09-06T19:54:11.154Z,6.28
2022-09-06T19:59:15.485Z,6.13
2022-09-06T20:04:17.943Z,6.30
2022-09-06T20:09:20.582Z,5.45
2022-09-06T20:19:28.149Z,6.15
2022-09-06T20:24:30.592Z,6.22
2022-09-06T20:29:33.073Z,7.90
2022-09-06T20:34:36.890Z,6.97
2022-09-06T20:39:39.857Z,6.57
2022-09-06T20:44:42.324Z,6.88
2022-09-06T20:49:46.150Z,6.40
2022-09-06T20:54:48.634Z,5.78
2022-09-06T20:59:51.120Z,6.85
2022-09-06T21:04:54.846Z,6.95
2022-09-06T21:09:57.224Z,6.60
2022-09-06T21:14:59.685Z,6.15
2022-09-06T21:20:04.635Z,6.68
2022-09-06T21:25:07.222Z,6.40
2022-09-06T21:30:10.481Z,6.40
2022-09-06T21:35:14.209Z,5.95
2022-09-06T21:40:17.061Z,6.63
2022-09-06T21:45:19.553Z,6.20
2022-09-06T21:50:23.264Z,6.50
2022-09-06T21:55:25.777Z,6.57
2022-09-06T22:00:28.599Z,7.85
2022-09-06T22:05:32.627Z,7.38
2022-09-06T22:10:35.145Z,6.88
2022-09-06T22:15:38.253Z,7.78
2022-09-06T22:20:42.046Z,6.57
2022-09-06T22:25:44.414Z,7.70
2022-09-06T22:30:46.842Z,7.38
2022-09-06T22:35:50.550Z,7.60
2022-09-06T22:40:53.555Z,8.43
2022-09-06T22:46:02.388Z,8.35
2022-09-06T22:51:07.001Z,8.77
2022-09-06T22:56:09.442Z,8.20
2022-09-06T23:01:12.903Z,8.60
2022-09-06T23:06:16.713Z,8.02
2022-09-06T23:11:19.869Z,7.40
2022-09-06T23:16:22.364Z,6.80
2022-09-06T23:21:26.733Z,7.35
2022-09-06T23:26:30.288Z,7.03
2022-09-06T23:31:33.418Z,5.82
2022-09-06T23:36:37.394Z,6.40
2022-09-06T23:41:39.844Z,6.10
2022-09-06T23:46:42.494Z,6.35
2022-09-06T23:51:46.295Z,7.72
2022-09-06T23:56:48.767Z,8.20
